Time;durP1;ratioP1;P1;durP2;ratioP2;P2;SDS_P1;SDS_P2;PMS_P1;PMS_P2;Temp;Humidity;BMP_temperature;BMP_pressure;BME280_temperature;BME280_humidity;BME280_pressure;Samples;Min_cycle;Max_cycle;Signal;HPM_P1;HPM_P2
2022/02/06 00:01:07;;;;;;;29.35;4.00;;;;;;;10.78;73.71;101093.16;4970699;28;20521;-54
2022/02/06 00:03:33;;;;;;;30.52;3.97;;;;;;;10.87;73.00;101079.34;4971039;28;20405;-58
2022/02/06 00:06:00;;;;;;;26.30;3.72;;;;;;;10.89;73.20;101093.31;4983958;28;20050;-56
2022/02/06 00:08:26;;;;;;;30.02;4.28;;;;;;;10.87;73.30;101063.69;4976697;28;20164;-57
2022/02/06 00:10:51;;;;;;;28.63;3.90;;;;;;;10.71;73.88;101064.34;4972043;28;20436;-56
2022/02/06 00:13:17;;;;;;;24.38;3.80;;;;;;;10.80;73.52;101073.16;4985328;28;20038;-55
2022/02/06 00:15:43;;;;;;;26.10;4.05;;;;;;;10.82;73.63;101062.75;4979451;28;20508;-57
2022/02/06 00:18:08;;;;;;;23.38;3.83;;;;;;;10.63;74.08;101045.06;4982614;28;20049;-57
2022/02/06 00:20:39;;;;;;;24.73;3.70;;;;;;;10.81;73.79;101054.06;4951836;28;20046;-56
2022/02/06 00:23:09;;;;;;;32.33;4.32;;;;;;;10.88;73.46;101044.59;4957446;28;20046;-56
2022/02/06 00:28:35;;;;;;;30.77;4.20;;;;;;;10.85;73.18;101035.00;4978986;28;20057;-56
2022/02/06 00:31:18;;;;;;;28.00;4.07;;;;;;;10.84;73.31;101041.09;4975393;28;20706;-56
2022/02/06 00:34:09;;;;;;;31.27;4.72;;;;;;;10.63;73.81;101032.03;4979952;28;20535;-56
2022/02/06 00:39:13;;;;;;;38.17;4.63;;;;;;;10.88;73.19;101016.78;4979694;28;20104;-57
2022/02/06 00:41:38;;;;;;;26.52;4.72;;;;;;;10.85;73.79;101001.09;4977879;28;20046;-56
2022/02/06 00:44:06;;;;;;;32.80;4.32;;;;;;;10.89;73.47;101009.84;4981398;28;20124;-56
2022/02/06 00:46:35;;;;;;;37.15;4.30;;;;;;;10.89;73.30;100997.69;4974333;28;20053;-56
2022/02/06 00:49:10;;;;;;;33.88;4.82;;;;;;;10.81;73.42;100987.97;4969660;28;20037;-56
2022/02/06 00:51:53;;;;;;;33.38;4.78;;;;;;;10.79;73.46;100997.53;4982909;28;20053;-57
2022/02/06 00:54:18;;;;;;;37.92;5.18;;;;;;;10.78;73.43;100986.22;4981943;28;20124;-57
2022/02/06 00:56:44;;;;;;;41.78;4.90;;;;;;;10.93;73.39;100996.84;4980040;28;21838;-57
2022/02/06 00:59:09;;;;;;;35.85;4.38;;;;;;;10.95;73.05;100999.50;4982072;28;20037;-56
2022/02/06 01:01:41;;;;;;;46.05;5.05;;;;;;;10.88;73.42;101002.88;4976632;28;20176;-57
2022/02/06 01:04:08;;;;;;;32.05;4.53;;;;;;;10.97;72.85;100969.09;4984564;28;20046;-57
2022/02/06 01:06:34;;;;;;;39.40;5.38;;;;;;;11.04;72.96;100996.16;4973454;28;20045;-55
2022/02/06 01:08:59;;;;;;;44.30;5.43;;;;;;;10.89;73.36;100992.47;4978842;28;20077;-57
2022/02/06 01:11:24;;;;;;;36.22;4.97;;;;;;;11.00;72.77;100984.78;4977388;28;21762;-57
2022/02/06 01:14:06;;;;;;;33.80;5.22;;;;;;;10.96;72.86;100983.00;4977533;28;20053;-55
2022/02/06 01:16:36;;;;;;;39.15;5.43;;;;;;;10.94;73.26;100971.66;4973739;28;20446;-56
2022/02/06 01:19:14;;;;;;;49.67;5.47;;;;;;;10.86;73.25;100968.06;4988261;28;20045;-57
2022/02/06 01:24:57;;;;;;;42.63;5.80;;;;;;;11.02;73.11;100962.19;4978275;28;20056;-58
2022/02/06 01:27:34;;;;;;;35.45;5.47;;;;;;;10.93;73.16;100957.72;4989407;28;20045;-58
2022/02/06 01:30:10;;;;;;;35.88;5.03;;;;;;;10.72;73.66;100938.31;4980655;28;20042;-57
2022/02/06 01:32:43;;;;;;;48.47;5.50;;;;;;;10.97;73.13;100938.69;4962731;28;20030;-56
2022/02/06 01:35:14;;;;;;;45.53;5.38;;;;;;;10.79;73.59;100935.81;4987791;28;20037;-57
2022/02/06 01:40:18;;;;;;;47.88;4.95;;;;;;;10.93;73.34;100941.19;4983728;28;20158;-57
2022/02/06 01:42:51;;;;;;;39.60;5.32;;;;;;;10.99;73.21;100942.16;4965958;28;20144;-57
2022/02/06 02:07:28;;;;;;;35.35;5.18;;;;;;;11.08;72.89;100925.75;4985147;28;20157;-58
2022/02/06 02:10:42;;;;;;;43.50;5.65;;;;;;;11.04;73.16;100929.16;4975627;28;20573;-57
2022/02/06 02:45:21;;;;;;;41.30;5.88;;;;;;;10.96;73.96;100871.72;4975997;28;20060;-57
2022/02/06 02:47:49;;;;;;;37.95;5.65;;;;;;;10.89;74.13;100845.53;4979910;28;20693;-57
2022/02/06 02:50:19;;;;;;;36.78;5.45;;;;;;;10.90;73.69;100832.50;4979056;28;20060;-58
2022/02/06 03:03:16;;;;;;;33.67;5.07;;;;;;;10.90;74.05;100802.94;4982803;28;20096;-58
2022/02/06 03:05:43;;;;;;;40.08;5.30;;;;;;;10.90;74.10;100789.91;4965637;28;20038;-57
2022/02/06 03:08:09;;;;;;;37.83;5.15;;;;;;;11.01;73.64;100824.78;4974315;28;20448;-58
2022/02/06 03:10:36;;;;;;;35.22;5.35;;;;;;;11.01;73.76;100821.31;4972746;28;20037;-57
2022/02/06 03:13:05;;;;;;;43.53;5.32;;;;;;;11.05;73.21;100813.53;4964193;28;20339;-58
2022/02/06 03:16:19;;;;;;;37.55;5.53;;;;;;;10.97;73.66;100805.63;4976942;28;20046;-58
2022/02/06 03:18:21;;;;;;;39.53;5.53;;;;;;;11.01;73.42;100797.81;4967276;28;21645;-58
2022/02/06 03:20:47;;;;;;;32.47;4.97;;;;;;;10.90;73.88;100803.81;4979282;28;20431;-57
2022/02/06 03:23:14;;;;;;;40.53;5.68;;;;;;;10.75;74.03;100797.53;4975029;28;20046;-58
2022/02/06 03:26:13;;;;;;;34.72;5.18;;;;;;;10.90;73.96;100795.13;4978399;28;20101;-58
2022/02/06 03:28:32;;;;;;;33.13;4.95;;;;;;;10.87;73.77;100793.34;4973556;28;20048;-58
2022/02/06 03:30:57;;;;;;;35.92;5.38;;;;;;;10.80;73.97;100781.09;4969167;28;20045;-57
2022/02/06 03:33:22;;;;;;;41.90;5.72;;;;;;;10.97;73.52;100776.94;4964445;28;20059;-57
2022/02/06 03:35:48;;;;;;;42.83;4.97;;;;;;;10.90;73.53;100788.16;4978208;28;20100;-57
2022/02/06 03:38:13;;;;;;;34.95;4.35;;;;;;;10.94;73.23;100781.25;4981034;28;20045;-57
2022/02/06 03:40:44;;;;;;;32.22;4.43;;;;;;;10.98;73.38;100777.78;4964403;28;20128;-59
2022/02/06 03:43:18;;;;;;;35.88;4.80;;;;;;;10.90;73.53;100766.44;4982535;28;20135;-58
2022/02/06 03:45:53;;;;;;;37.00;5.10;;;;;;;10.92;73.52;100757.75;4981678;28;20568;-55
2022/02/06 03:48:27;;;;;;;36.10;5.28;;;;;;;10.93;72.94;100761.22;4971406;28;20650;-57
2022/02/06 03:50:55;;;;;;;40.15;4.90;;;;;;;10.94;73.14;100770.81;4983005;28;20505;-58
2022/02/06 03:53:23;;;;;;;34.22;4.75;;;;;;;11.01;72.58;100780.44;4980934;28;20054;-58
2022/02/06 03:55:50;;;;;;;46.72;5.30;;;;;;;11.03;72.54;100764.81;4981718;28;20149;-57
2022/02/06 03:58:16;;;;;;;37.88;5.10;;;;;;;11.01;72.64;100748.25;4962834;28;20129;-59
2022/02/06 04:00:42;;;;;;;37.22;4.70;;;;;;;10.92;72.88;100768.16;4973932;28;20072;-62
2022/02/06 04:03:07;;;;;;;35.83;4.72;;;;;;;11.02;72.72;100747.41;4981972;28;20117;-58
2022/02/06 04:05:33;;;;;;;36.95;4.95;;;;;;;11.20;72.02;100750.19;4965152;28;20042;-58
2022/02/06 04:07:58;;;;;;;40.17;4.88;;;;;;;11.24;71.96;100746.72;4982442;28;20170;-58
2022/02/06 04:10:32;;;;;;;37.47;5.50;;;;;;;11.19;71.72;100736.25;4971971;28;20042;-60
2022/02/06 04:13:00;;;;;;;42.33;5.88;;;;;;;11.18;71.85;100736.25;4981459;28;20434;-59
2022/02/06 04:15:35;;;;;;;31.50;4.72;;;;;;;11.17;71.58;100713.63;4975801;28;20049;-58
2022/02/06 04:18:23;;;;;;;34.72;5.32;;;;;;;11.15;71.62;100716.25;4979945;28;20528;-59
2022/02/06 04:20:48;;;;;;;35.80;5.30;;;;;;;11.21;71.61;100715.41;4981509;28;20218;-56
2022/02/06 04:23:13;;;;;;;35.95;5.63;;;;;;;11.16;71.74;100696.25;4981508;28;20343;-58
2022/02/06 04:25:39;;;;;;;37.30;5.45;;;;;;;11.11;71.80;100709.22;4985732;28;20457;-59
2022/02/06 04:28:04;;;;;;;34.25;5.35;;;;;;;11.27;70.85;100695.47;4976417;28;20052;-59
2022/02/06 04:30:33;;;;;;;38.65;4.97;;;;;;;11.20;71.11;100680.63;4969961;28;20057;-56
2022/02/06 04:32:59;;;;;;;34.60;5.25;;;;;;;11.16;71.02;100691.03;4963188;28;20041;-58
2022/02/06 04:35:29;;;;;;;39.00;5.45;;;;;;;11.23;70.79;100687.56;4972746;28;20041;-58
2022/02/06 05:16:05;;;;;;;35.05;4.25;;;;;;;11.35;70.62;100593.69;4972846;28;20060;-57
2022/02/06 05:19:15;;;;;;;36.97;4.47;;;;;;;11.33;70.72;100593.72;4973600;28;20462;-58
2022/02/06 05:34:19;;;;;;;29.98;4.05;;;;;;;11.36;70.78;100585.00;4977679;28;20046;-54
2022/02/06 05:36:44;;;;;;;32.10;4.22;;;;;;;11.24;70.91;100587.56;4973567;28;20460;-56
2022/02/06 05:39:10;;;;;;;35.47;4.60;;;;;;;11.41;70.50;100583.28;4979506;28;20246;-59
2022/02/06 05:41:35;;;;;;;35.28;4.70;;;;;;;11.42;70.32;100576.34;4977484;28;20041;-57
2022/02/06 05:44:03;;;;;;;28.25;3.63;;;;;;;11.39;70.36;100593.75;4974406;28;20030;-57
2022/02/06 05:46:28;;;;;;;34.13;4.50;;;;;;;11.42;70.37;100585.06;4969601;28;20102;-55
2022/02/06 05:48:53;;;;;;;37.30;4.55;;;;;;;11.53;70.17;100582.47;4981416;28;20525;-56
2022/02/06 05:51:19;;;;;;;25.23;4.10;;;;;;;11.51;70.04;100559.00;4978157;28;20422;-57
2022/02/06 05:53:45;;;;;;;36.15;4.68;;;;;;;11.56;70.03;100566.84;4979814;28;20054;-57
2022/02/06 05:56:10;;;;;;;34.80;4.60;;;;;;;11.52;70.17;100573.81;4966682;28;20057;-56
2022/02/06 05:58:36;;;;;;;30.15;5.13;;;;;;;11.39;70.48;100580.69;4966731;28;20221;-57
2022/02/06 06:01:02;;;;;;;31.65;4.50;;;;;;;11.44;70.36;100558.97;4972361;28;20037;-56
2022/02/06 06:03:27;;;;;;;32.72;4.75;;;;;;;11.51;70.40;100579.00;4964236;28;20288;-57
2022/02/06 06:05:52;;;;;;;33.05;4.47;;;;;;;11.48;70.08;100553.75;4982046;28;20042;-57
2022/02/06 06:08:20;;;;;;;34.80;4.60;;;;;;;11.44;70.54;100538.97;4982425;28;20192;-56
2022/02/06 06:10:45;;;;;;;34.05;5.22;;;;;;;11.53;70.15;100541.59;4977103;28;20049;-56
2022/02/06 06:13:11;;;;;;;35.88;4.35;;;;;;;11.46;70.08;100534.63;4982703;28;20038;-55
2022/02/06 06:15:36;;;;;;;38.30;4.88;;;;;;;11.53;69.87;100533.75;4985996;28;20129;-56
2022/02/06 06:18:05;;;;;;;35.05;4.65;;;;;;;11.52;69.99;100523.34;4977655;28;20132;-57
2022/02/06 06:20:32;;;;;;;33.60;4.85;;;;;;;11.55;69.82;100511.16;4977110;28;20173;-56
2022/02/06 06:22:58;;;;;;;38.42;5.07;;;;;;;11.56;69.36;100520.72;4983478;28;20498;-57
2022/02/06 06:25:26;;;;;;;38.25;5.00;;;;;;;11.58;69.20;100505.94;4985605;28;20048;-57
2022/02/06 06:27:52;;;;;;;37.55;5.07;;;;;;;11.43;69.52;100503.28;4968441;28;20451;-57
2022/02/06 06:30:18;;;;;;;41.05;4.90;;;;;;;11.55;69.48;100494.59;4976811;28;20240;-55
2022/02/06 06:32:43;;;;;;;41.60;5.07;;;;;;;11.50;69.47;100480.69;4968640;28;20544;-57
2022/02/06 06:35:09;;;;;;;32.22;4.78;;;;;;;11.56;69.54;100489.41;4971769;28;20506;-57
2022/02/06 06:37:39;;;;;;;35.08;4.80;;;;;;;11.49;69.59;100485.03;4983220;28;20448;-57
2022/02/06 06:40:05;;;;;;;30.50;4.72;;;;;;;11.59;69.27;100481.56;4983790;28;20042;-57
2022/02/06 06:42:30;;;;;;;38.95;4.93;;;;;;;11.61;69.51;100478.97;4968093;28;21393;-57
2022/02/06 06:44:55;;;;;;;33.85;4.78;;;;;;;11.51;70.00;100479.81;4981751;28;20080;-56
2022/02/06 06:47:21;;;;;;;39.95;5.38;;;;;;;11.59;69.36;100471.13;4979978;28;20552;-58
2022/02/06 06:49:46;;;;;;;37.38;4.95;;;;;;;11.65;69.33;100470.25;4983504;28;20569;-57
2022/02/06 06:52:11;;;;;;;41.50;5.03;;;;;;;11.57;69.39;100466.78;4979223;28;20153;-56
2022/02/06 06:54:41;;;;;;;33.05;4.75;;;;;;;11.59;69.42;100454.59;4979295;28;20537;-56
2022/02/06 06:57:17;;;;;;;31.63;4.68;;;;;;;11.58;69.45;100466.78;4980027;28;20054;-56
2022/02/06 07:04:54;;;;;;;34.47;4.80;;;;;;;11.69;69.24;100436.34;4965636;28;20071;-56
2022/02/06 07:07:20;;;;;;;33.83;3.78;;;;;;;11.72;69.13;100425.03;4975286;28;20055;-57
2022/02/06 07:09:45;;;;;;;33.92;5.03;;;;;;;11.75;69.54;100428.56;4965728;28;20045;-56
2022/02/06 07:12:13;;;;;;;39.97;4.50;;;;;;;11.81;69.15;100413.75;4982685;28;20131;-57
2022/02/06 07:14:39;;;;;;;34.03;4.60;;;;;;;11.58;70.49;100416.31;4972505;28;20373;-56
2022/02/06 07:17:05;;;;;;;35.63;4.78;;;;;;;11.59;70.58;100403.25;4968659;28;20046;-57
2022/02/06 07:19:30;;;;;;;37.88;4.60;;;;;;;11.48;70.76;100412.78;4957579;28;20128;-57
2022/02/06 07:21:56;;;;;;;32.42;4.45;;;;;;;11.62;70.51;100405.00;4982967;28;20064;-58
2022/02/06 07:24:25;;;;;;;35.50;4.35;;;;;;;11.59;71.03;100392.78;4975298;28;20069;-57
2022/02/06 07:26:52;;;;;;;35.72;4.60;;;;;;;11.47;71.37;100392.78;4963293;28;20383;-57
2022/02/06 07:29:18;;;;;;;31.88;4.50;;;;;;;11.48;71.72;100388.44;4979572;28;20147;-57
2022/02/06 07:31:45;;;;;;;30.90;4.30;;;;;;;11.54;71.28;100371.03;4971226;28;20481;-55
2022/02/06 07:34:11;;;;;;;29.98;4.40;;;;;;;11.43;72.10;100390.16;4949545;28;20081;-57
2022/02/06 07:36:36;;;;;;;35.20;4.28;;;;;;;11.43;71.85;100379.72;4981441;28;20281;-57
2022/02/06 07:39:03;;;;;;;34.10;4.30;;;;;;;11.34;72.52;100349.28;4961677;28;20054;-56
2022/02/06 07:41:28;;;;;;;37.33;5.18;;;;;;;11.43;72.09;100351.88;4984042;28;20418;-58
2022/02/06 07:43:54;;;;;;;36.92;4.97;;;;;;;11.24;72.77;100347.50;4979585;28;20564;-57
2022/02/06 07:46:23;;;;;;;37.80;4.97;;;;;;;11.35;72.58;100341.41;4961916;28;20050;-57
2022/02/06 07:48:49;;;;;;;37.88;4.50;;;;;;;11.33;72.91;100321.44;4983872;28;20053;-57
2022/02/06 07:51:14;;;;;;;30.45;4.40;;;;;;;11.17;73.23;100322.25;4983424;28;20507;-56
2022/02/06 07:53:40;;;;;;;32.20;4.32;;;;;;;11.35;72.84;100320.53;4977486;28;20050;-56
2022/02/06 07:56:05;;;;;;;33.40;4.43;;;;;;;11.32;72.81;100304.03;4981268;28;20144;-56
2022/02/06 07:58:30;;;;;;;34.30;4.00;;;;;;;11.20;73.36;100280.53;4969121;28;20064;-57
2022/02/06 08:00:56;;;;;;;34.00;4.35;;;;;;;11.33;73.25;100288.38;4962382;28;20733;-57
2022/02/06 08:03:21;;;;;;;36.53;4.93;;;;;;;11.20;73.93;100277.91;4982291;28;20037;-56
2022/02/06 08:05:46;;;;;;;26.15;4.03;;;;;;;11.27;73.43;100258.78;4982352;28;20049;-58
2022/02/06 08:08:14;;;;;;;25.83;3.92;;;;;;;11.43;72.96;100270.09;4980922;28;20068;-57
2022/02/06 08:10:40;;;;;;;28.25;4.03;;;;;;;11.34;73.29;100269.22;4964858;28;20917;-59
2022/02/06 08:13:08;;;;;;;32.70;4.32;;;;;;;11.45;72.62;100266.63;4982891;28;20037;-57
2022/02/06 08:15:33;;;;;;;26.80;3.92;;;;;;;11.48;72.72;100261.41;4964966;28;20364;-57
2022/02/06 08:17:58;;;;;;;23.92;3.85;;;;;;;11.37;72.93;100232.69;4982010;28;20608;-58
2022/02/06 08:20:24;;;;;;;23.02;3.80;;;;;;;11.36;73.21;100230.94;4978828;28;20587;-60
2022/02/06 08:22:52;;;;;;;21.98;3.60;;;;;;;11.21;74.02;100206.59;4965611;28;20057;-59
2022/02/06 08:25:18;;;;;;;32.45;4.00;;;;;;;11.24;73.57;100219.63;4982186;28;20044;-56
2022/02/06 08:27:44;;;;;;;28.42;3.90;;;;;;;11.30;73.25;100211.81;4977937;28;20069;-57
2022/02/06 08:30:10;;;;;;;30.92;3.90;;;;;;;11.24;73.39;100202.25;4976192;28;20387;-57
2022/02/06 08:32:36;;;;;;;24.27;2.90;;;;;;;11.32;73.21;100199.63;4972399;28;20971;-58
2022/02/06 08:35:01;;;;;;;22.73;3.80;;;;;;;11.33;73.35;100173.56;4982046;28;20302;-57
2022/02/06 08:37:27;;;;;;;24.88;3.45;;;;;;;11.28;73.35;100177.88;4983297;28;20045;-55
2022/02/06 08:39:52;;;;;;;27.52;3.80;;;;;;;11.27;73.33;100168.34;4977247;28;20985;-56
2022/02/06 08:42:19;;;;;;;24.85;3.63;;;;;;;11.16;73.85;100143.97;4979512;28;20049;-56
2022/02/06 08:44:45;;;;;;;27.92;4.00;;;;;;;11.17;74.11;100153.53;4974629;28;20057;-56
2022/02/06 08:47:12;;;;;;;32.95;4.38;;;;;;;11.26;73.84;100143.13;4975393;28;20885;-57
2022/02/06 08:49:38;;;;;;;25.05;3.53;;;;;;;11.21;73.60;100137.03;4973394;28;20319;-58
2022/02/06 08:52:05;;;;;;;26.88;3.40;;;;;;;11.31;73.88;100137.88;4984009;28;20065;-59
2022/02/06 08:54:33;;;;;;;19.02;2.95;;;;;;;11.22;74.08;100137.91;4971825;28;20046;-59
2022/02/06 08:57:03;;;;;;;24.38;3.40;;;;;;;11.27;74.02;100125.72;4982185;28;20053;-58
2022/02/06 08:59:37;;;;;;;20.30;3.20;;;;;;;11.36;73.24;100116.13;4977970;28;20073;-57
2022/02/06 09:02:03;;;;;;;22.23;2.95;;;;;;;11.35;73.79;100095.25;4975663;28;20109;-58
2022/02/06 09:04:28;;;;;;;13.88;3.33;;;;;;;11.34;74.06;100106.56;4973521;28;20166;-59
2022/02/06 09:06:58;;;;;;;18.48;3.42;;;;;;;11.17;73.94;100080.50;4981007;28;20053;-60
2022/02/06 09:09:24;;;;;;;26.05;3.25;;;;;;;11.22;74.25;100085.72;4966145;28;20048;-58
2022/02/06 09:11:52;;;;;;;24.77;3.15;;;;;;;11.30;74.00;100083.94;4977407;28;20552;-58
2022/02/06 09:14:24;;;;;;;24.02;3.28;;;;;;;11.27;73.75;100077.00;4981323;28;20061;-58
2022/02/06 09:16:53;;;;;;;18.75;3.00;;;;;;;11.24;73.73;100056.13;4974213;28;20041;-57
2022/02/06 09:19:19;;;;;;;20.40;3.17;;;;;;;11.26;73.69;100061.34;4980432;28;20647;-58
2022/02/06 09:21:44;;;;;;;24.58;3.25;;;;;;;11.29;74.07;100056.97;4980776;28;20393;-57
2022/02/06 09:24:10;;;;;;;20.88;2.78;;;;;;;11.43;73.71;100063.91;4978648;28;20222;-57
2022/02/06 09:26:38;;;;;;;22.75;2.95;;;;;;;11.32;73.78;100014.38;4974023;28;20058;-58
2022/02/06 09:29:04;;;;;;;21.08;2.88;;;;;;;11.43;73.41;100033.47;4981168;28;20096;-56
2022/02/06 09:31:30;;;;;;;22.65;2.95;;;;;;;11.29;73.86;100053.50;4976462;28;20041;-57
2022/02/06 09:36:21;;;;;;;19.83;2.90;;;;;;;11.48;73.72;100034.31;4977077;28;20781;-58
2022/02/06 09:38:46;;;;;;;20.30;3.00;;;;;;;11.52;73.45;100029.97;4978537;28;20421;-57
2022/02/06 09:41:12;;;;;;;19.85;2.97;;;;;;;11.45;73.77;100017.81;4983840;28;20375;-57
2022/02/06 09:43:43;;;;;;;21.02;3.65;;;;;;;11.43;73.71;100016.94;4984079;28;20092;-59
2022/02/06 09:46:09;;;;;;;17.50;2.70;;;;;;;11.36;74.32;100000.44;4984308;28;20080;-58
2022/02/06 09:48:34;;;;;;;25.15;3.33;;;;;;;11.26;74.33;99998.72;4951440;28;20296;-58
2022/02/06 09:51:00;;;;;;;18.17;3.00;;;;;;;11.30;74.50;100003.06;4974494;28;20394;-59
2022/02/06 09:53:29;;;;;;;19.05;3.28;;;;;;;11.29;74.42;99976.09;4969594;28;20053;-56
2022/02/06 09:55:57;;;;;;;25.67;3.50;;;;;;;11.29;74.58;99978.69;4960697;28;20074;-56
2022/02/06 10:00:51;;;;;;;20.80;3.33;;;;;;;11.45;73.98;99966.47;4970387;28;20134;-58
2022/02/06 10:03:18;;;;;;;18.05;3.20;;;;;;;11.24;74.79;99951.75;4978317;28;20046;-56
2022/02/06 10:05:44;;;;;;;23.63;3.50;;;;;;;11.38;74.26;99962.16;4971651;28;20405;-57
2022/02/06 10:08:30;;;;;;;22.17;3.30;;;;;;;11.43;74.12;99947.34;4980255;28;20038;-57
2022/02/06 10:11:03;;;;;;;28.88;3.92;;;;;;;11.47;74.11;99945.56;4983908;28;20080;-56
2022/02/06 10:13:30;;;;;;;27.73;4.10;;;;;;;11.47;74.09;99948.19;4987299;28;20038;-57
2022/02/06 10:15:56;;;;;;;30.25;4.32;;;;;;;11.42;74.22;99945.59;4979399;28;20640;-57
2022/02/06 10:18:22;;;;;;;27.38;4.10;;;;;;;11.53;73.99;99945.53;4963903;28;20094;-58
2022/02/06 10:20:49;;;;;;;26.90;4.35;;;;;;;11.47;73.81;99956.88;4975750;28;20030;-58
2022/02/06 10:23:28;;;;;;;29.88;4.18;;;;;;;11.56;73.78;99917.69;4984067;28;20124;-58
2022/02/06 10:26:04;;;;;;;28.50;4.30;;;;;;;11.40;74.38;99900.38;4975961;28;20069;-58
2022/02/06 10:28:37;;;;;;;35.15;4.03;;;;;;;11.58;73.78;99931.63;4950777;28;20053;-60
2022/02/06 10:31:04;;;;;;;33.80;5.13;;;;;;;11.54;74.19;99888.09;4976742;28;20392;-58
2022/02/06 10:33:52;;;;;;;30.90;4.20;;;;;;;11.46;74.46;99886.44;4981885;28;20123;-57
2022/02/06 10:36:34;;;;;;;35.00;4.38;;;;;;;11.42;74.22;99910.78;4984266;28;20405;-55
2022/02/06 10:39:01;;;;;;;27.90;4.13;;;;;;;11.40;74.43;99889.94;4983579;28;20398;-58
2022/02/06 10:41:27;;;;;;;20.45;3.15;;;;;;;11.46;74.11;99891.66;4965664;28;20052;-57
2022/02/06 10:44:09;;;;;;;17.05;3.03;;;;;;;11.51;74.45;99877.69;4981936;28;20046;-58
2022/02/06 10:46:54;;;;;;;21.73;3.13;;;;;;;11.51;74.38;99889.88;4959420;28;20053;-58
2022/02/06 10:49:20;;;;;;;18.27;3.28;;;;;;;11.52;74.05;99944.69;4974337;28;20145;-58
2022/02/06 10:51:49;;;;;;;14.93;2.75;;;;;;;11.22;72.24;99978.75;4982703;28;20048;-58
2022/02/06 10:54:27;;;;;;;12.93;1.73;;;;;;;10.90;69.83;100044.91;4983704;28;20706;-58
2022/02/06 10:57:15;;;;;;;7.32;1.10;;;;;;;10.60;68.81;100038.84;4979607;28;20200;-58
2022/02/06 10:59:53;;;;;;;7.20;1.00;;;;;;;10.33;69.27;100030.13;4974109;28;20068;-58
2022/02/06 11:02:56;;;;;;;15.05;1.35;;;;;;;10.27;69.64;100037.06;4981057;28;20050;-57
2022/02/06 11:05:30;;;;;;;8.32;1.38;;;;;;;10.21;69.75;100058.78;4981497;28;20687;-58
2022/02/06 11:08:01;;;;;;;11.57;1.50;;;;;;;10.25;70.12;100070.91;4981334;28;20048;-58
2022/02/06 11:10:28;;;;;;;15.02;1.75;;;;;;;10.09;70.73;100066.53;4964325;28;20159;-59
2022/02/06 11:12:55;;;;;;;10.85;1.50;;;;;;;10.12;70.47;100070.00;4978198;28;20073;-59
2022/02/06 11:15:29;;;;;;;14.40;1.30;;;;;;;10.00;71.37;100077.78;4984963;28;20119;-59
2022/02/06 11:18:06;;;;;;;13.00;1.17;;;;;;;9.98;71.45;100079.53;4975592;28;20140;-59
2022/02/06 11:20:32;;;;;;;11.52;1.15;;;;;;;9.93;71.08;100070.84;4974310;28;20490;-59
2022/02/06 11:23:02;;;;;;;14.35;1.48;;;;;;;9.99;70.97;100081.28;4961853;28;20477;-59
2022/02/06 11:25:31;;;;;;;15.25;1.48;;;;;;;9.83;71.05;100087.28;4984250;28;20041;-58
2022/02/06 11:27:57;;;;;;;11.70;1.17;;;;;;;9.84;70.91;100086.41;4984603;28;20046;-59
2022/02/06 11:30:22;;;;;;;16.08;1.35;;;;;;;9.88;71.50;100101.16;4977198;28;20098;-58
2022/02/06 11:32:48;;;;;;;12.57;1.27;;;;;;;9.87;71.11;100104.66;4978388;28;20049;-58
2022/02/06 11:35:18;;;;;;;12.88;1.23;;;;;;;9.83;71.79;100112.44;4975212;28;20037;-59
2022/02/06 11:43:55;;;;;;;8.68;0.88;;;;;;;10.04;70.32;100001.41;4948771;28;20065;-59
2022/02/06 11:46:28;;;;;;;8.68;1.15;;;;;;;10.13;70.46;100018.78;4956459;28;20663;-58
2022/02/06 11:49:04;;;;;;;7.82;1.20;;;;;;;10.22;70.60;100039.69;4979374;28;20041;-58
2022/02/06 11:51:29;;;;;;;8.20;1.23;;;;;;;10.24;70.08;100058.78;4970553;28;20037;-58
2022/02/06 11:53:55;;;;;;;11.38;1.13;;;;;;;10.43;69.84;100057.91;4942674;28;20128;-59
2022/02/06 11:56:23;;;;;;;11.70;1.10;;;;;;;10.49;70.02;100075.31;4960104;28;21069;-59
2022/02/06 11:58:50;;;;;;;7.80;1.05;;;;;;;10.59;69.44;100069.25;4956483;28;20045;-59
2022/02/06 12:01:15;;;;;;;9.90;1.08;;;;;;;10.64;68.97;100069.25;4984141;28;20148;-59
2022/02/06 12:03:51;;;;;;;9.30;0.90;;;;;;;10.44;67.96;100075.31;4978608;28;20046;-59
2022/02/06 12:06:19;;;;;;;8.73;1.00;;;;;;;10.55;68.32;100078.78;4974567;28;20042;-59
2022/02/06 12:09:04;;;;;;;5.25;1.10;;;;;;;10.63;68.19;100086.63;4966553;28;20610;-59
2022/02/06 12:11:31;;;;;;;9.60;1.10;;;;;;;10.61;68.14;100096.19;4979999;28;20041;-59
2022/02/06 12:14:16;;;;;;;9.63;1.13;;;;;;;10.76;67.88;100087.50;4973943;28;20042;-59
2022/02/06 12:16:57;;;;;;;7.97;0.90;;;;;;;10.84;68.27;100091.84;4972297;28;20241;-57
2022/02/06 12:19:26;;;;;;;7.57;1.23;;;;;;;10.96;67.35;100091.84;4977303;28;20042;-59
2022/02/06 12:21:52;;;;;;;14.70;1.30;;;;;;;11.02;67.61;100095.31;4979648;28;20042;-59
2022/02/06 12:24:53;;;;;;;15.63;1.38;;;;;;;10.92;68.12;100094.44;4978350;28;20084;-57
2022/02/06 12:27:27;;;;;;;15.43;1.42;;;;;;;11.04;68.44;100088.38;4902301;29;20099;-59
2022/02/06 12:29:58;;;;;;;10.98;1.70;;;;;;;11.06;68.54;100090.06;4963067;28;20041;-59
2022/02/06 12:32:31;;;;;;;10.82;1.75;;;;;;;11.14;68.59;100085.72;4974433;28;20045;-57
2022/02/06 12:37:41;;;;;;;13.50;1.17;;;;;;;11.40;67.92;100080.47;4972069;28;20127;-58
2022/02/06 12:40:10;;;;;;;12.63;1.45;;;;;;;11.39;67.45;100076.13;4977663;28;20282;-58
2022/02/06 12:42:41;;;;;;;14.35;1.58;;;;;;;11.42;67.71;100090.88;4975086;28;20579;-58
2022/02/06 12:45:15;;;;;;;16.52;1.55;;;;;;;11.38;67.45;100093.50;4976282;28;20042;-59
2022/02/06 12:47:50;;;;;;;9.88;1.42;;;;;;;11.47;67.66;100082.16;4977484;28;20063;-59
2022/02/06 12:50:21;;;;;;;14.57;1.50;;;;;;;11.64;66.92;100087.34;4972719;28;20068;-58
2022/02/06 12:52:49;;;;;;;10.23;1.48;;;;;;;11.61;66.03;100103.00;4960601;28;20074;-58
2022/02/06 12:55:15;;;;;;;15.68;1.83;;;;;;;11.47;66.65;100107.38;4977935;28;20116;-57
2022/02/06 12:57:46;;;;;;;11.60;1.20;;;;;;;11.47;66.86;100096.94;4979530;28;20049;-59
2022/02/06 13:00:24;;;;;;;8.77;1.20;;;;;;;11.41;66.39;100095.22;4953934;28;20045;-59
2022/02/06 13:02:50;;;;;;;8.52;1.30;;;;;;;11.55;66.44;100096.06;4963159;28;20402;-59
2022/02/06 13:05:15;;;;;;;9.88;1.30;;;;;;;11.58;66.43;100093.47;4980079;28;20056;-59
2022/02/06 13:07:45;;;;;;;8.55;1.30;;;;;;;11.57;66.19;100096.94;4973634;28;20049;-58
2022/02/06 13:10:12;;;;;;;7.95;1.05;;;;;;;11.75;65.47;100102.13;4979288;28;20892;-59
2022/02/06 13:12:52;;;;;;;6.32;1.58;;;;;;;11.75;65.57;100098.66;4975179;28;20061;-58
2022/02/06 13:15:44;;;;;;;7.80;1.55;;;;;;;11.65;65.80;100102.97;4981900;28;20453;-56
2022/02/06 13:18:23;;;;;;;11.60;1.27;;;;;;;11.67;64.87;100100.38;4963463;28;20053;-57
2022/02/06 13:23:44;;;;;;;8.57;1.23;;;;;;;11.61;64.55;100098.66;4973189;28;20681;-58
2022/02/06 13:26:17;;;;;;;8.63;1.27;;;;;;;11.73;64.66;100092.53;4977210;28;20140;-59
2022/02/06 13:28:55;;;;;;;5.15;1.50;;;;;;;11.76;63.95;100098.66;4962545;28;20045;-60
2022/02/06 13:31:40;;;;;;;8.30;1.33;;;;;;;11.69;64.26;100096.91;4978261;28;20050;-59
2022/02/06 13:36:45;;;;;;;12.30;1.58;;;;;;;11.73;63.91;100103.88;4975143;28;20621;-58
2022/02/06 13:39:18;;;;;;;11.52;1.48;;;;;;;11.69;63.52;100116.91;4980034;28;20052;-60
2022/02/06 13:41:44;;;;;;;8.23;1.50;;;;;;;11.68;64.20;100123.88;4977958;28;20134;-58
2022/02/06 13:44:14;;;;;;;7.95;1.40;;;;;;;11.54;63.86;100132.59;4980748;28;20053;-57
2022/02/06 13:46:42;;;;;;;7.20;1.23;;;;;;;11.49;63.68;100122.19;4966022;28;20217;-57
2022/02/06 13:49:08;;;;;;;8.18;1.25;;;;;;;11.27;63.73;100130.94;4952047;28;20434;-57
2022/02/06 13:51:47;;;;;;;9.98;1.55;;;;;;;11.36;63.63;100128.31;4962262;28;20108;-57
2022/02/06 13:54:14;;;;;;;5.45;1.10;;;;;;;11.15;63.96;100120.50;4980291;28;20569;-56
2022/02/06 13:56:39;;;;;;;9.55;1.45;;;;;;;11.13;63.96;100127.47;4973330;28;20133;-57
2022/02/06 13:59:11;;;;;;;7.22;1.40;;;;;;;11.07;64.17;100141.38;4970772;28;20048;-59
2022/02/06 14:01:53;;;;;;;7.28;1.75;;;;;;;11.02;63.92;100134.44;4974542;28;21253;-57